createdAt,value
2017-09-03T00:01:50.611Z,85.40
2017-09-03T00:05:00.238Z,84.20
2017-09-03T00:08:10.528Z,85.00
2017-09-03T00:11:20.372Z,84.10
2017-09-03T00:14:30.948Z,83.00
2017-09-03T00:17:41.283Z,84.60
2017-09-03T00:20:51.484Z,84.70
2017-09-03T00:24:01.888Z,83.90
2017-09-03T00:27:12.206Z,83.10
2017-09-03T00:30:23.057Z,82.80
2017-09-03T00:33:32.993Z,83.00
2017-09-03T00:36:43.576Z,83.00
2017-09-03T00:39:54.166Z,82.60
2017-09-03T00:43:04.099Z,82.50
2017-09-03T00:46:15.049Z,82.60
2017-09-03T00:49:24.527Z,82.60
2017-09-03T00:52:34.488Z,82.40
2017-09-03T00:55:44.916Z,83.00
2017-09-03T00:58:55.204Z,84.30
2017-09-03T01:02:05.591Z,84.70
2017-09-03T01:05:16.968Z,84.00
2017-09-03T01:08:27.362Z,84.00
2017-09-03T01:11:37.798Z,84.60
2017-09-03T01:14:48.172Z,84.30
2017-09-03T01:17:58.429Z,84.80
2017-09-03T01:21:08.475Z,84.90
2017-09-03T01:24:18.419Z,83.70
2017-09-03T01:27:29.188Z,84.60
2017-09-03T01:30:39.373Z,84.30
2017-09-03T01:33:49.319Z,83.50
2017-09-03T01:36:59.452Z,83.00
2017-09-03T01:40:10.006Z,84.00
2017-09-03T01:43:20.604Z,84.10
2017-09-03T01:46:31.156Z,83.90
2017-09-03T01:49:41.070Z,83.70
2017-09-03T01:52:51.484Z,83.80
2017-09-03T01:56:01.980Z,82.70
2017-09-03T01:59:12.460Z,83.40
2017-09-03T02:02:22.361Z,83.00
2017-09-03T02:05:32.925Z,82.40
2017-09-03T02:08:43.064Z,82.10
2017-09-03T02:11:53.289Z,82.30
2017-09-03T02:15:03.613Z,82.60
2017-09-03T02:18:14.215Z,84.30
2017-09-03T02:21:24.463Z,83.60
2017-09-03T02:24:35.144Z,84.40
2017-09-03T02:27:45.322Z,84.40
2017-09-03T02:30:56.140Z,85.00
2017-09-03T02:34:06.337Z,84.30
2017-09-03T02:37:17.080Z,84.70
2017-09-03T02:40:27.373Z,83.70
2017-09-03T02:43:38.097Z,83.50
2017-09-03T02:46:48.089Z,83.50
2017-09-03T02:49:58.057Z,83.30
2017-09-03T02:53:08.607Z,82.10
2017-09-03T02:56:19.208Z,81.80
2017-09-03T02:59:30.024Z,82.00
2017-09-03T03:02:40.426Z,82.00
2017-09-03T03:05:50.484Z,83.10
2017-09-03T03:09:00.556Z,83.70
2017-09-03T03:12:11.625Z,84.70
2017-09-03T03:15:21.403Z,85.20
2017-09-03T03:18:31.329Z,84.90
2017-09-03T03:21:41.976Z,84.70
2017-09-03T03:24:52.893Z,84.80
2017-09-03T03:28:02.932Z,85.20
2017-09-03T03:31:13.259Z,85.50
2017-09-03T03:34:23.892Z,85.40
2017-09-03T03:37:34.177Z,85.40
2017-09-03T03:40:44.378Z,85.00
2017-09-03T03:43:54.669Z,84.40
2017-09-03T03:47:05.315Z,84.90
2017-09-03T03:50:15.865Z,84.20
2017-09-03T03:53:26.233Z,84.00
2017-09-03T03:56:36.129Z,84.70
2017-09-03T03:59:46.169Z,83.80
2017-09-03T04:02:56.930Z,84.40
2017-09-03T04:06:07.155Z,84.40
2017-09-03T04:09:17.864Z,84.70
2017-09-03T04:12:28.188Z,85.00
2017-09-03T04:15:38.756Z,86.30
2017-09-03T04:18:48.689Z,86.30
2017-09-03T04:21:58.930Z,85.30
2017-09-03T04:25:09.795Z,85.90
2017-09-03T04:28:20.037Z,85.60
2017-09-03T04:31:30.900Z,85.80
2017-09-03T04:34:40.588Z,85.40
2017-09-03T04:37:50.573Z,85.00
2017-09-03T04:41:00.874Z,85.30
2017-09-03T04:44:11.056Z,85.00
2017-09-03T04:47:21.395Z,85.60
2017-09-03T04:50:31.540Z,85.40
2017-09-03T04:53:41.654Z,85.50
2017-09-03T04:56:51.852Z,85.00
2017-09-03T05:00:02.665Z,84.60
2017-09-03T05:03:13.925Z,85.30
2017-09-03T05:06:24.209Z,84.70
2017-09-03T05:09:34.312Z,85.90
2017-09-03T05:12:44.579Z,86.10
2017-09-03T05:15:55.150Z,85.50
2017-09-03T05:19:05.421Z,85.90
2017-09-03T05:22:15.115Z,85.60
2017-09-03T05:25:26.358Z,85.40
2017-09-03T05:28:36.967Z,86.00
2017-09-03T05:31:47.080Z,85.50
2017-09-03T05:34:56.812Z,84.90
2017-09-03T05:38:07.114Z,85.50
2017-09-03T05:41:17.316Z,85.50
2017-09-03T05:44:27.482Z,86.10
2017-09-03T05:47:37.752Z,84.90
2017-09-03T05:50:47.948Z,86.10
2017-09-03T05:53:58.405Z,86.60
2017-09-03T05:57:08.779Z,85.80
2017-09-03T06:00:19.452Z,86.00
2017-09-03T06:03:29.609Z,86.00
2017-09-03T06:06:39.538Z,85.50
2017-09-03T06:09:49.287Z,85.70
2017-09-03T06:12:59.421Z,84.90
2017-09-03T06:16:09.934Z,84.70
2017-09-03T06:19:20.436Z,85.80
2017-09-03T06:22:30.221Z,86.50
2017-09-03T06:25:40.424Z,86.20
2017-09-03T06:28:50.799Z,85.40
2017-09-03T06:32:01.273Z,86.10
2017-09-03T06:35:11.536Z,84.50
2017-09-03T06:38:23.212Z,85.20
2017-09-03T06:41:33.535Z,85.10
2017-09-03T06:44:44.126Z,85.30
2017-09-03T06:47:54.515Z,85.30
2017-09-03T06:51:04.756Z,84.80
2017-09-03T06:54:14.872Z,84.80
2017-09-03T06:57:25.580Z,84.00
2017-09-03T07:00:35.451Z,85.00
2017-09-03T07:03:46.291Z,85.30
2017-09-03T07:06:56.674Z,86.00
2017-09-03T07:10:07.352Z,83.70
2017-09-03T07:13:17.940Z,85.40
2017-09-03T07:16:28.526Z,85.50
2017-09-03T07:19:38.539Z,85.30
2017-09-03T07:22:49.247Z,85.40
2017-09-03T07:25:59.973Z,85.90
2017-09-03T07:29:10.271Z,85.40
2017-09-03T07:32:20.375Z,85.70
2017-09-03T07:35:31.021Z,86.50
2017-09-03T07:38:41.638Z,85.50
2017-09-03T07:41:52.209Z,85.20
2017-09-03T07:45:02.166Z,85.70
2017-09-03T07:48:13.596Z,87.50
2017-09-03T07:51:24.134Z,86.60
2017-09-03T07:54:34.818Z,86.00
2017-09-03T07:57:45.079Z,84.60
2017-09-03T08:00:55.314Z,87.20
2017-09-03T08:04:06.005Z,86.80
2017-09-03T08:07:16.320Z,85.90
2017-09-03T08:10:27.766Z,85.50
2017-09-03T08:13:37.843Z,85.40
2017-09-03T08:16:49.088Z,85.70
2017-09-03T08:19:59.756Z,85.60
2017-09-03T08:23:10.010Z,86.30
2017-09-03T08:26:25.184Z,84.90
2017-09-03T08:29:35.661Z,84.90
2017-09-03T08:32:45.981Z,83.80
2017-09-03T08:35:56.480Z,84.30
2017-09-03T08:39:07.561Z,84.70
2017-09-03T08:42:18.977Z,83.70
2017-09-03T08:45:29.808Z,83.70
2017-09-03T08:48:39.641Z,83.80
2017-09-03T08:51:49.770Z,83.00
2017-09-03T08:54:59.611Z,83.70
2017-09-03T08:58:10.569Z,82.70
2017-09-03T09:01:21.130Z,82.70
2017-09-03T09:04:31.849Z,82.20
2017-09-03T09:07:42.370Z,81.50
2017-09-03T09:10:54.030Z,82.50
2017-09-03T09:14:03.869Z,82.50
2017-09-03T09:17:13.950Z,83.10
2017-09-03T09:20:23.823Z,82.40
2017-09-03T09:23:34.289Z,81.30
2017-09-03T09:26:44.735Z,81.40
2017-09-03T09:29:55.022Z,80.80
2017-09-03T09:33:05.238Z,81.30
2017-09-03T09:36:14.901Z,82.10
2017-09-03T09:39:25.842Z,80.50
2017-09-03T09:42:36.472Z,80.60
2017-09-03T09:45:46.921Z,80.60
2017-09-03T09:48:56.866Z,81.10
2017-09-03T09:52:06.659Z,79.20
2017-09-03T09:55:16.689Z,78.40
2017-09-03T09:58:26.938Z,78.20
2017-09-03T10:01:36.918Z,76.90
2017-09-03T10:04:47.184Z,78.70
2017-09-03T10:07:57.719Z,79.50
2017-09-03T10:11:08.092Z,77.60
2017-09-03T10:14:17.994Z,79.80
2017-09-03T10:17:28.509Z,80.00
2017-09-03T10:20:39.072Z,80.50
2017-09-03T10:23:49.733Z,78.50
2017-09-03T10:27:00.174Z,77.00
2017-09-03T10:30:10.106Z,78.40
2017-09-03T10:33:19.946Z,76.70
2017-09-03T10:36:30.891Z,76.20
2017-09-03T10:39:41.054Z,76.90
2017-09-03T10:42:51.121Z,75.40
2017-09-03T10:46:01.863Z,75.50
2017-09-03T10:49:12.085Z,74.10
2017-09-03T10:52:22.914Z,74.60
2017-09-03T10:55:32.852Z,74.30
2017-09-03T10:58:43.245Z,73.30
2017-09-03T11:01:53.896Z,69.90
2017-09-03T11:05:04.193Z,69.80
2017-09-03T11:08:14.209Z,70.30
2017-09-03T11:11:24.396Z,67.70
2017-09-03T11:14:34.420Z,68.00
2017-09-03T11:17:44.440Z,70.10
2017-09-03T11:20:54.525Z,68.70
2017-09-03T11:24:04.465Z,67.00
2017-09-03T11:27:14.765Z,68.40
2017-09-03T11:30:25.097Z,66.60
2017-09-03T11:33:35.498Z,65.90
2017-09-03T11:36:45.604Z,65.00
2017-09-03T11:39:56.542Z,66.50
2017-09-03T11:43:06.455Z,65.10
2017-09-03T11:46:16.441Z,64.50
2017-09-03T11:49:26.787Z,62.90
2017-09-03T11:52:36.825Z,63.70
2017-09-03T11:55:46.923Z,63.60
2017-09-03T11:58:57.089Z,63.20
2017-09-03T12:02:07.932Z,64.80
2017-09-03T12:05:19.033Z,66.00
2017-09-03T12:08:28.963Z,66.00
2017-09-03T12:11:39.424Z,64.80
2017-09-03T12:14:50.016Z,64.70
2017-09-03T12:18:00.366Z,65.50
2017-09-03T12:21:11.925Z,65.00
2017-09-03T12:24:22.365Z,65.00
2017-09-03T12:27:32.203Z,63.30
2017-09-03T12:30:41.924Z,64.70
2017-09-03T12:33:52.448Z,61.50
2017-09-03T12:37:03.045Z,61.40
2017-09-03T12:40:13.105Z,61.60
2017-09-03T12:43:23.056Z,59.90
2017-09-03T12:46:33.025Z,62.40
2017-09-03T12:49:43.384Z,60.70
2017-09-03T12:52:54.434Z,58.60
2017-09-03T12:56:04.615Z,58.50
2017-09-03T12:59:14.681Z,61.10
2017-09-03T13:02:24.316Z,59.60
2017-09-03T13:05:34.784Z,58.20
2017-09-03T13:08:44.631Z,56.70
2017-09-03T13:11:55.145Z,57.70
2017-09-03T13:15:05.614Z,58.00
2017-09-03T13:18:16.036Z,57.10
2017-09-03T13:21:26.125Z,57.90
2017-09-03T13:24:36.146Z,57.90
2017-09-03T13:27:46.326Z,56.40
2017-09-03T13:30:56.454Z,57.10
2017-09-03T13:34:07.181Z,55.20
2017-09-03T13:37:17.134Z,55.70
2017-09-03T13:40:26.967Z,55.00
2017-09-03T13:43:38.236Z,54.80
2017-09-03T13:46:47.688Z,54.70
2017-09-03T13:49:58.048Z,56.10
2017-09-03T13:53:07.925Z,53.90
2017-09-03T13:56:17.613Z,53.70
2017-09-03T13:59:28.185Z,53.40
2017-09-03T14:02:38.584Z,53.60
2017-09-03T14:05:48.929Z,52.00
2017-09-03T14:08:58.933Z,53.30
2017-09-03T14:12:09.882Z,54.50
2017-09-03T14:15:19.956Z,54.50
2017-09-03T14:18:30.315Z,52.00
2017-09-03T14:21:40.564Z,52.70
2017-09-03T14:24:50.448Z,52.10
2017-09-03T14:28:00.768Z,51.50
2017-09-03T14:31:10.919Z,52.30
2017-09-03T14:34:21.458Z,52.10
2017-09-03T14:37:31.147Z,52.80
2017-09-03T14:40:41.157Z,52.90
2017-09-03T14:43:51.384Z,52.70
2017-09-03T14:47:01.081Z,53.10
2017-09-03T14:50:11.719Z,54.60
2017-09-03T14:53:21.486Z,53.70
2017-09-03T14:56:32.123Z,53.50
2017-09-03T14:59:42.374Z,54.90
2017-09-03T15:02:53.168Z,54.80
2017-09-03T15:06:03.181Z,53.50
2017-09-03T15:09:17.056Z,53.00
2017-09-03T15:12:27.227Z,54.00
2017-09-03T15:15:37.682Z,53.10
2017-09-03T15:18:47.643Z,53.80
2017-09-03T15:21:58.284Z,54.80
2017-09-03T15:25:09.112Z,53.10
2017-09-03T15:28:19.002Z,53.00
2017-09-03T15:31:29.678Z,52.90
2017-09-03T15:34:39.846Z,53.40
2017-09-03T15:37:50.292Z,53.20
2017-09-03T15:41:00.536Z,53.90
2017-09-03T15:44:10.516Z,53.70
2017-09-03T15:47:20.507Z,53.70
2017-09-03T15:50:30.755Z,53.50
2017-09-03T15:53:40.620Z,53.80
2017-09-03T15:56:50.578Z,54.50
2017-09-03T16:00:00.734Z,53.40
2017-09-03T16:03:10.857Z,52.80
2017-09-03T16:06:21.022Z,53.90
2017-09-03T16:09:30.965Z,52.20
2017-09-03T16:12:40.957Z,54.20
2017-09-03T16:15:51.805Z,54.40
2017-09-03T16:19:02.168Z,54.30
2017-09-03T16:22:12.632Z,54.00
2017-09-03T16:25:23.513Z,54.70
2017-09-03T16:28:33.814Z,54.30
2017-09-03T16:31:43.858Z,55.70
2017-09-03T16:34:53.989Z,55.50
2017-09-03T16:38:04.346Z,54.50
2017-09-03T16:41:15.052Z,54.60
2017-09-03T16:44:25.371Z,53.90
2017-09-03T16:47:35.140Z,55.00
2017-09-03T16:50:45.324Z,54.60
2017-09-03T16:53:56.195Z,54.70
2017-09-03T16:57:06.560Z,55.50
2017-09-03T17:00:16.753Z,56.30
2017-09-03T17:03:27.155Z,57.00
2017-09-03T17:06:36.818Z,57.20
2017-09-03T17:09:46.690Z,58.50
2017-09-03T17:12:56.747Z,58.90
2017-09-03T17:16:07.204Z,60.50
2017-09-03T17:19:16.976Z,62.60
2017-09-03T17:22:27.901Z,62.60
2017-09-03T17:25:38.199Z,62.80
2017-09-03T17:28:48.455Z,63.70
2017-09-03T17:31:58.495Z,64.90
2017-09-03T17:38:55.592Z,66.70
2017-09-03T17:42:09.243Z,68.80
2017-09-03T17:45:18.942Z,65.10
2017-09-03T17:48:28.972Z,63.90
2017-09-03T17:51:39.040Z,62.70
2017-09-03T17:54:49.225Z,64.70
2017-09-03T17:57:59.641Z,66.00
2017-09-03T18:01:10.256Z,66.80
2017-09-03T18:04:20.118Z,66.90
2017-09-03T18:07:30.821Z,67.60
2017-09-03T18:10:40.389Z,69.00
2017-09-03T18:13:50.680Z,69.20
2017-09-03T18:17:00.555Z,69.50
2017-09-03T18:20:11.365Z,69.50
2017-09-03T18:23:21.539Z,69.50
2017-09-03T18:26:31.873Z,70.00
2017-09-03T18:29:42.041Z,68.80
2017-09-03T18:32:52.367Z,68.80
2017-09-03T18:36:04.904Z,69.00
2017-09-03T18:42:59.190Z,70.00
2017-09-03T18:46:13.559Z,70.40
2017-09-03T18:49:23.444Z,70.50
2017-09-03T18:52:43.480Z,70.60
2017-09-03T18:55:56.945Z,70.80
2017-09-03T18:59:09.969Z,71.50
2017-09-03T19:02:22.032Z,71.60
2017-09-03T19:05:32.336Z,72.80
2017-09-03T19:08:42.987Z,74.40
2017-09-03T19:11:53.451Z,74.40
2017-09-03T19:15:03.704Z,73.70
2017-09-03T19:18:13.572Z,73.60
2017-09-03T19:21:24.244Z,73.20
2017-09-03T19:24:34.463Z,73.20
2017-09-03T19:27:44.552Z,73.10
2017-09-03T19:30:56.181Z,73.50
2017-09-03T19:34:06.704Z,73.40
2017-09-03T19:37:18.037Z,74.10
2017-09-03T19:40:28.307Z,74.70
2017-09-03T19:43:38.333Z,74.30
2017-09-03T19:46:49.317Z,74.40
2017-09-03T19:49:59.474Z,74.40
2017-09-03T19:53:09.424Z,74.80
2017-09-03T19:56:19.756Z,74.10
2017-09-03T19:59:29.753Z,74.50
2017-09-03T20:02:39.913Z,74.60
2017-09-03T20:05:49.660Z,74.60
2017-09-03T20:08:59.988Z,74.80
2017-09-03T20:12:11.217Z,74.60
2017-09-03T20:15:21.376Z,74.60
2017-09-03T20:18:31.526Z,75.40
2017-09-03T20:21:41.574Z,75.40
2017-09-03T20:24:51.421Z,75.80
2017-09-03T20:28:01.483Z,76.40
2017-09-03T20:31:11.748Z,76.00
2017-09-03T20:34:22.345Z,75.40
2017-09-03T20:37:32.300Z,75.70
2017-09-03T20:40:42.441Z,75.80
2017-09-03T20:43:53.210Z,77.10
2017-09-03T20:47:04.350Z,76.70
2017-09-03T20:50:15.859Z,76.70
2017-09-03T20:53:25.904Z,76.60
2017-09-03T20:56:36.294Z,77.70
2017-09-03T20:59:46.748Z,77.30
2017-09-03T21:02:56.741Z,77.80
2017-09-03T21:06:06.760Z,78.40
2017-09-03T21:09:17.136Z,77.90
2017-09-03T21:12:27.804Z,76.90
2017-09-03T21:15:37.740Z,76.90
2017-09-03T21:18:47.776Z,76.80
2017-09-03T21:21:58.041Z,77.50
2017-09-03T21:25:08.744Z,77.60
2017-09-03T21:28:19.109Z,77.00
2017-09-03T21:31:29.027Z,77.20
2017-09-03T21:34:38.996Z,77.20
2017-09-03T21:37:49.040Z,77.80
2017-09-03T21:40:59.388Z,76.90
2017-09-03T21:44:09.799Z,77.20
2017-09-03T21:47:20.035Z,76.70
2017-09-03T21:50:31.042Z,77.10
2017-09-03T21:53:41.205Z,77.70
2017-09-03T21:56:51.598Z,78.00
2017-09-03T22:00:02.360Z,77.80
2017-09-03T22:03:12.613Z,78.10
2017-09-03T22:06:23.031Z,78.50
2017-09-03T22:09:33.300Z,78.60
2017-09-03T22:12:43.702Z,78.50
2017-09-03T22:15:53.649Z,78.80
2017-09-03T22:19:04.183Z,79.00
2017-09-03T22:22:14.169Z,78.80
2017-09-03T22:25:25.145Z,78.30
2017-09-03T22:28:35.542Z,78.20
2017-09-03T22:31:46.173Z,78.00
2017-09-03T22:34:56.227Z,78.40
2017-09-03T22:38:06.866Z,79.50
2017-09-03T22:41:16.731Z,80.10
2017-09-03T22:44:27.068Z,80.10
2017-09-03T22:47:36.979Z,80.40
2017-09-03T22:50:46.823Z,79.80
2017-09-03T22:53:56.907Z,79.60
2017-09-03T22:57:07.456Z,79.40
2017-09-03T23:00:18.378Z,78.00
2017-09-03T23:03:28.477Z,79.40
2017-09-03T23:06:38.530Z,79.60
2017-09-03T23:09:49.180Z,79.30
2017-09-03T23:12:59.227Z,79.40
2017-09-03T23:16:09.518Z,79.40
2017-09-03T23:19:20.202Z,79.40
2017-09-03T23:22:36.422Z,80.10
2017-09-03T23:25:46.295Z,80.00
2017-09-03T23:28:57.833Z,79.60
2017-09-03T23:32:08.634Z,79.60
2017-09-03T23:35:19.095Z,79.60
2017-09-03T23:38:29.024Z,79.60
2017-09-03T23:42:41.518Z,80.50
2017-09-03T23:45:52.254Z,81.60
2017-09-03T23:49:03.211Z,80.60
2017-09-03T23:52:13.247Z,80.40
2017-09-03T23:55:23.516Z,80.80
2017-09-03T23:58:33.159Z,80.60
